createdAt,value
2018-08-13T01:00:33.254Z,53.17
2018-08-13T01:01:33.194Z,53.17
2018-08-13T01:02:33.222Z,53.27
2018-08-13T01:03:33.181Z,53.17
2018-08-13T01:04:33.155Z,53.57
2018-08-13T01:05:33.144Z,53.77
2018-08-13T01:06:33.143Z,53.80
2018-08-13T01:07:33.165Z,53.59
2018-08-13T01:08:33.110Z,53.00
2018-08-13T01:09:33.102Z,53.30
2018-08-13T01:10:33.085Z,53.19
2018-08-13T01:11:33.082Z,53.09
2018-08-13T01:12:33.071Z,52.80
2018-08-13T01:13:33.106Z,52.57
2018-08-13T01:14:33.044Z,51.99
2018-08-13T01:15:33.031Z,52.47
2018-08-13T01:16:33.020Z,52.49
2018-08-13T01:17:33.010Z,52.57
2018-08-13T01:18:33.044Z,52.69
2018-08-13T01:19:32.988Z,52.77
2018-08-13T01:20:32.979Z,52.97
2018-08-13T01:21:32.970Z,52.57
2018-08-13T01:22:32.954Z,52.87
2018-08-13T01:23:32.991Z,53.17
2018-08-13T01:24:32.938Z,53.50
2018-08-13T01:25:32.922Z,53.39
2018-08-13T01:26:32.915Z,52.80
2018-08-13T01:27:32.898Z,53.39
2018-08-13T01:28:32.937Z,53.30
2018-08-13T01:29:32.881Z,53.50
2018-08-13T01:30:32.871Z,53.39
2018-08-13T01:31:32.859Z,53.39
2018-08-13T01:32:32.847Z,53.59
2018-08-13T01:33:32.878Z,53.19
2018-08-13T01:34:32.824Z,53.59
2018-08-13T01:35:32.811Z,53.39
2018-08-13T01:36:32.797Z,53.39
2018-08-13T01:37:32.790Z,53.30
2018-08-13T01:38:32.825Z,53.89
2018-08-13T01:39:32.764Z,53.80
2018-08-13T01:40:32.755Z,54.00
2018-08-13T01:41:32.744Z,53.89
2018-08-13T01:42:32.731Z,53.39
2018-08-13T01:43:32.767Z,54.10
2018-08-13T01:44:32.716Z,53.59
2018-08-13T01:45:32.698Z,53.80
2018-08-13T01:46:32.689Z,54.20
2018-08-13T01:47:32.681Z,53.89
2018-08-13T01:48:32.711Z,53.80
2018-08-13T01:49:32.654Z,53.30
2018-08-13T01:50:32.643Z,53.50
2018-08-13T01:51:32.639Z,53.30
2018-08-13T01:52:32.625Z,53.69
2018-08-13T01:53:32.657Z,53.19
2018-08-13T01:54:32.602Z,54.10
2018-08-13T01:55:32.592Z,54.02
2018-08-13T01:56:32.577Z,54.43
2018-08-13T01:57:32.568Z,54.02
2018-08-13T01:58:32.605Z,53.92
2018-08-13T01:59:32.544Z,54.35
2018-08-13T02:00:32.538Z,54.02
2018-08-13T02:01:32.622Z,53.72
2018-08-13T02:02:32.512Z,53.72
2018-08-13T02:03:32.560Z,54.22
2018-08-13T02:04:32.495Z,54.22
2018-08-13T02:05:32.481Z,54.12
2018-08-13T02:06:32.483Z,54.45
2018-08-13T02:07:32.461Z,54.05
2018-08-13T02:08:32.516Z,54.72
2018-08-13T02:09:32.436Z,54.15
2018-08-13T02:10:32.483Z,54.75
2018-08-13T02:11:32.420Z,54.65
2018-08-13T02:12:32.407Z,54.65
2018-08-13T02:13:32.438Z,54.65
2018-08-13T02:14:32.389Z,54.65
2018-08-13T02:15:32.376Z,54.25
2018-08-13T02:16:32.374Z,54.45
2018-08-13T02:17:32.351Z,54.35
2018-08-13T02:18:32.388Z,54.55
2018-08-13T02:19:32.326Z,54.25
2018-08-13T02:20:32.313Z,54.75
2018-08-13T02:21:32.308Z,54.85
2018-08-13T02:22:32.295Z,54.55
2018-08-13T02:23:32.327Z,54.55
2018-08-13T02:24:32.275Z,54.75
2018-08-13T02:25:32.258Z,54.25
2018-08-13T02:26:32.248Z,54.15
2018-08-13T02:27:32.238Z,54.75
2018-08-13T02:28:32.271Z,54.35
2018-08-13T02:29:32.225Z,54.85
2018-08-13T02:30:32.213Z,54.25
2018-08-13T02:31:32.193Z,54.25
2018-08-13T02:32:32.182Z,53.45
2018-08-13T02:33:32.232Z,53.55
2018-08-13T02:34:32.160Z,53.64
2018-08-13T02:35:32.150Z,53.34
2018-08-13T02:36:32.151Z,53.55
2018-08-13T02:37:32.125Z,53.34
2018-08-13T02:38:32.166Z,53.45
2018-08-13T02:39:32.111Z,53.45
2018-08-13T02:40:32.092Z,53.34
2018-08-13T02:41:32.083Z,53.64
2018-08-13T02:42:32.071Z,53.57
2018-08-13T02:43:32.106Z,53.67
2018-08-13T02:44:32.066Z,53.87
2018-08-13T02:45:32.064Z,53.47
2018-08-13T02:46:32.076Z,53.55
2018-08-13T02:47:32.015Z,53.47
2018-08-13T02:48:32.055Z,53.77
2018-08-13T02:49:31.992Z,54.27
2018-08-13T02:50:32.005Z,54.07
2018-08-13T02:51:32.060Z,53.57
2018-08-13T02:52:31.961Z,53.47
2018-08-13T02:53:32.019Z,53.47
2018-08-13T02:54:31.936Z,53.57
2018-08-13T02:55:31.935Z,53.67
2018-08-13T02:56:31.935Z,53.45
2018-08-13T02:57:31.908Z,53.47
2018-08-13T02:58:31.946Z,53.57
2018-08-13T02:59:31.883Z,53.17
2018-08-13T03:00:31.871Z,53.45
2018-08-13T03:01:31.882Z,52.97
2018-08-13T03:02:31.873Z,52.97
2018-08-13T03:03:31.886Z,52.77
2018-08-13T03:04:31.857Z,52.87
2018-08-13T03:05:31.822Z,52.87
2018-08-13T03:06:31.809Z,53.05
2018-08-13T03:07:31.809Z,52.75
2018-08-13T03:08:31.836Z,52.64
2018-08-13T03:09:31.773Z,52.55
2018-08-13T03:10:31.806Z,52.67
2018-08-13T03:11:31.748Z,52.57
2018-08-13T03:12:31.736Z,52.57
2018-08-13T03:13:31.731Z,52.26
2018-08-13T03:14:31.765Z,52.75
2018-08-13T03:15:31.705Z,52.77
2018-08-13T03:16:31.696Z,52.17
2018-08-13T03:17:31.686Z,52.55
2018-08-13T03:18:31.675Z,52.75
2018-08-13T03:19:31.708Z,52.47
2018-08-13T03:20:31.648Z,52.47
2018-08-13T03:21:31.637Z,52.67
2018-08-13T03:22:31.627Z,52.77
2018-08-13T03:23:31.618Z,52.87
2018-08-13T03:24:31.650Z,52.77
2018-08-13T03:25:31.607Z,52.87
2018-08-13T03:26:31.582Z,52.77
2018-08-13T03:27:31.584Z,52.87
2018-08-13T03:28:31.562Z,52.87
2018-08-13T03:29:31.599Z,53.00
2018-08-13T03:30:31.539Z,52.97
2018-08-13T03:31:31.530Z,53.39
2018-08-13T03:32:31.514Z,53.50
2018-08-13T03:33:31.561Z,53.59
2018-08-13T03:34:31.551Z,53.50
2018-08-13T03:35:31.500Z,53.30
2018-08-13T03:36:31.493Z,53.59
2018-08-13T03:37:31.461Z,53.50
2018-08-13T03:38:31.448Z,53.50
2018-08-13T03:39:31.499Z,53.09
2018-08-13T03:40:31.425Z,52.97
2018-08-13T03:41:31.417Z,52.77
2018-08-13T03:42:31.415Z,53.07
2018-08-13T03:43:31.394Z,52.87
2018-08-13T03:44:31.448Z,52.75
2018-08-13T03:45:31.370Z,52.37
2018-08-13T03:46:31.362Z,52.55
2018-08-13T03:47:31.364Z,52.55
2018-08-13T03:48:31.339Z,52.55
2018-08-13T03:49:31.377Z,52.94
2018-08-13T03:50:31.320Z,53.34
2018-08-13T03:51:31.317Z,54.25
2018-08-13T03:52:31.292Z,54.05
2018-08-13T03:53:31.288Z,54.35
2018-08-13T03:54:31.325Z,54.55
2018-08-13T03:55:31.265Z,54.15
2018-08-13T03:56:31.249Z,54.58
2018-08-13T03:57:31.238Z,55.18
2018-08-13T03:58:31.230Z,54.47
2018-08-13T03:59:31.264Z,54.88
2018-08-13T04:00:31.203Z,55.68
2018-08-13T04:01:31.193Z,55.80
2018-08-13T04:02:31.187Z,55.18
2018-08-13T04:03:31.172Z,55.30
2018-08-13T04:04:31.210Z,55.38
2018-08-13T04:05:31.150Z,55.68
2018-08-13T04:06:31.175Z,55.58
2018-08-13T04:07:31.127Z,55.38
2018-08-13T04:08:31.117Z,55.38
2018-08-13T04:09:31.150Z,55.68
2018-08-13T04:10:31.098Z,55.18
2018-08-13T04:11:31.083Z,55.28
2018-08-13T04:12:31.082Z,55.47
2018-08-13T04:13:31.059Z,55.47
2018-08-13T04:14:31.100Z,55.98
2018-08-13T04:15:31.043Z,55.38
2018-08-13T04:16:31.025Z,55.28
2018-08-13T04:17:31.018Z,54.97
2018-08-13T04:18:31.005Z,55.28
2018-08-13T04:19:31.039Z,55.88
2018-08-13T04:20:30.986Z,54.55
2018-08-13T04:21:30.978Z,54.35
2018-08-13T04:22:30.961Z,54.45
2018-08-13T04:23:30.951Z,54.75
2018-08-13T04:24:30.997Z,54.15
2018-08-13T04:25:30.926Z,54.15
2018-08-13T04:26:30.920Z,54.75
2018-08-13T04:27:30.914Z,54.45
2018-08-13T04:28:30.892Z,55.75
2018-08-13T04:29:30.938Z,55.78
2018-08-13T04:30:30.870Z,55.88
2018-08-13T04:31:30.865Z,55.78
2018-08-13T04:32:30.856Z,55.88
2018-08-13T04:33:30.839Z,55.88
2018-08-13T04:34:30.874Z,55.88
2018-08-13T04:35:30.828Z,55.88
2018-08-13T04:36:30.806Z,55.88
2018-08-13T04:37:30.794Z,56.38
2018-08-13T04:38:30.826Z,55.88
2018-08-13T04:39:30.821Z,55.91
2018-08-13T04:40:30.760Z,56.41
2018-08-13T04:41:30.751Z,56.41
2018-08-13T04:42:30.742Z,56.34
2018-08-13T04:43:30.731Z,56.43
2018-08-13T04:44:30.759Z,56.54
2018-08-13T04:45:30.704Z,55.80
2018-08-13T04:46:30.696Z,56.41
2018-08-13T04:47:30.680Z,55.91
2018-08-13T04:48:30.674Z,55.60
2018-08-13T04:49:30.711Z,55.71
2018-08-13T04:50:30.655Z,55.40
2018-08-13T04:51:30.638Z,55.91
2018-08-13T04:52:30.634Z,55.20
2018-08-13T04:53:30.622Z,55.30
2018-08-13T04:54:30.660Z,55.30
2018-08-13T04:55:30.596Z,55.91
2018-08-13T04:56:30.583Z,55.51
2018-08-13T04:57:30.570Z,55.20
2018-08-13T04:58:30.576Z,55.71
2018-08-13T04:59:30.594Z,55.91
2018-08-13T05:00:30.545Z,55.91
2018-08-13T05:01:30.540Z,56.01
2018-08-13T05:02:30.516Z,55.91
2018-08-13T05:03:30.504Z,55.51
2018-08-13T05:04:30.538Z,54.90
2018-08-13T05:05:30.483Z,54.20
2018-08-13T05:06:30.477Z,54.40
2018-08-13T05:07:30.531Z,54.88
2018-08-13T05:08:30.452Z,54.20
2018-08-13T05:09:30.504Z,54.30
2018-08-13T05:10:30.428Z,53.97
2018-08-13T05:11:30.419Z,53.67
2018-08-13T05:12:30.408Z,53.70
2018-08-13T05:13:30.394Z,52.97
2018-08-13T05:14:30.435Z,52.77
2018-08-13T05:15:30.380Z,52.87
2018-08-13T05:16:30.360Z,52.24
2018-08-13T05:17:30.360Z,51.84
2018-08-13T05:18:30.347Z,52.34
2018-08-13T05:19:30.397Z,52.34
2018-08-13T05:20:30.316Z,51.94
2018-08-13T05:21:30.311Z,52.01
2018-08-13T05:22:30.295Z,52.32
2018-08-13T05:23:30.290Z,51.82
2018-08-13T05:24:30.271Z,51.59
2018-08-13T05:25:30.308Z,51.29
2018-08-13T05:26:30.252Z,51.39
2018-08-13T05:27:30.242Z,50.89
2018-08-13T05:28:30.229Z,50.57
2018-08-13T05:29:30.217Z,50.46
2018-08-13T05:30:30.259Z,50.46
2018-08-13T05:31:30.203Z,50.76
2018-08-13T05:32:30.184Z,50.46
2018-08-13T05:33:30.176Z,50.46
2018-08-13T05:34:30.166Z,49.46
2018-08-13T05:35:30.197Z,49.37
2018-08-13T05:36:30.145Z,49.66
2018-08-13T05:37:30.130Z,49.66
2018-08-13T05:38:30.118Z,49.46
2018-08-13T05:39:30.117Z,49.37
2018-08-13T05:40:30.143Z,50.07
2018-08-13T05:41:30.087Z,50.37
2018-08-13T05:42:30.088Z,49.57
2018-08-13T05:43:30.064Z,49.87
2018-08-13T05:44:30.051Z,50.07
2018-08-13T05:45:30.084Z,50.16
2018-08-13T05:46:30.028Z,49.87
2018-08-13T05:47:30.018Z,49.46
2018-08-13T05:48:30.008Z,49.26
2018-08-13T05:49:29.995Z,49.84
2018-08-13T05:50:30.027Z,50.74
2018-08-13T05:51:29.982Z,50.14
2018-08-13T05:52:29.963Z,50.34
2018-08-13T05:53:29.954Z,49.84
2018-08-13T05:54:29.946Z,49.94
2018-08-13T05:55:29.983Z,49.84
2018-08-13T05:56:29.921Z,49.54
2018-08-13T05:57:29.912Z,49.64
2018-08-13T05:58:29.896Z,49.52
2018-08-13T05:59:29.895Z,49.91
2018-08-13T06:00:29.921Z,49.82
2018-08-13T06:01:29.864Z,49.72
2018-08-13T06:02:29.864Z,49.22
2018-08-13T06:03:29.842Z,48.92
2018-08-13T06:04:29.832Z,49.11
2018-08-13T06:05:29.880Z,49.69
2018-08-13T06:06:29.811Z,49.49
2018-08-13T06:07:29.803Z,48.92
2018-08-13T06:08:29.787Z,49.82
2018-08-13T06:09:29.776Z,49.94
2018-08-13T06:10:29.824Z,50.54
2018-08-13T06:11:29.800Z,50.84
2018-08-13T06:12:29.744Z,50.74
2018-08-13T06:13:29.737Z,50.64
2018-08-13T06:14:29.726Z,50.74
2018-08-13T06:15:29.768Z,50.92
2018-08-13T06:16:29.705Z,51.02
2018-08-13T06:17:29.690Z,50.32
2018-08-13T06:18:29.684Z,50.52
2018-08-13T06:19:29.667Z,50.12
2018-08-13T06:20:29.705Z,50.59
2018-08-13T06:21:29.648Z,50.79
2018-08-13T06:22:29.635Z,50.72
2018-08-13T06:23:29.630Z,50.52
2018-08-13T06:24:29.617Z,51.82
2018-08-13T06:25:29.657Z,53.02
2018-08-13T06:26:29.592Z,53.82
2018-08-13T06:27:29.583Z,53.24
2018-08-13T06:28:29.571Z,55.37
2018-08-13T06:29:29.564Z,55.07
2018-08-13T06:30:29.599Z,56.27
2018-08-13T06:31:29.538Z,56.80
2018-08-13T06:32:29.535Z,58.81
2018-08-13T06:33:29.533Z,58.00
2018-08-13T06:34:29.509Z,60.21
2018-08-13T06:35:29.570Z,60.33
2018-08-13T06:36:29.485Z,61.67
2018-08-13T06:37:29.475Z,61.27
2018-08-13T06:38:29.466Z,61.47
2018-08-13T06:39:29.455Z,61.77
2018-08-13T06:40:29.501Z,62.50
2018-08-13T06:41:29.433Z,63.31
2018-08-13T06:42:29.420Z,63.00
2018-08-13T06:43:29.418Z,63.31
2018-08-13T06:44:29.401Z,62.80
2018-08-13T06:45:29.431Z,62.70
2018-08-13T06:46:29.389Z,62.50
2018-08-13T06:47:29.389Z,63.00
2018-08-13T06:48:29.359Z,62.90
2018-08-13T06:49:29.346Z,62.30
2018-08-13T06:50:29.384Z,62.60
2018-08-13T06:51:29.377Z,62.80
2018-08-13T06:52:29.323Z,61.80
2018-08-13T06:53:29.299Z,62.50
2018-08-13T06:54:29.291Z,62.80
2018-08-13T06:55:29.325Z,62.57
2018-08-13T06:56:29.267Z,62.97
2018-08-13T06:57:29.267Z,62.47
2018-08-13T06:58:29.248Z,62.17
2018-08-13T06:59:29.235Z,62.67
2018-08-13T07:00:29.284Z,62.77
2018-08-13T07:01:29.212Z,62.47
2018-08-13T07:02:29.231Z,62.67
2018-08-13T07:03:29.250Z,62.27
2018-08-13T07:04:29.192Z,62.57
2018-08-13T07:05:29.219Z,61.94
2018-08-13T07:06:29.159Z,62.07
2018-08-13T07:07:29.151Z,62.97
2018-08-13T07:08:29.139Z,62.24
2018-08-13T07:09:29.128Z,61.64
2018-08-13T07:10:29.160Z,62.24
2018-08-13T07:11:29.104Z,61.61
2018-08-13T07:12:29.094Z,61.51
2018-08-13T07:13:29.080Z,61.51
2018-08-13T07:14:29.077Z,61.51
2018-08-13T07:15:29.110Z,61.58
2018-08-13T07:16:29.048Z,61.38
2018-08-13T07:17:29.049Z,61.58
2018-08-13T07:18:29.031Z,62.38
2018-08-13T07:19:29.017Z,62.28
2018-08-13T07:20:29.052Z,62.38
2018-08-13T07:21:29.001Z,62.58
2018-08-13T07:22:29.135Z,63.28
2018-08-13T07:23:28.974Z,63.48
2018-08-13T07:24:28.963Z,64.98
2018-08-13T07:25:29.002Z,64.28
2018-08-13T07:26:28.943Z,64.39
2018-08-13T07:27:28.931Z,64.28
2018-08-13T07:28:28.928Z,64.89
2018-08-13T07:29:28.913Z,64.98
2018-08-13T07:30:28.951Z,65.25
2018-08-13T07:31:28.886Z,65.55
2018-08-13T07:32:28.887Z,65.66
2018-08-13T07:33:28.928Z,65.36
2018-08-13T07:34:28.854Z,65.12
2018-08-13T07:35:28.854Z,65.95
2018-08-13T07:36:28.900Z,65.86
2018-08-13T07:37:28.916Z,64.92
2018-08-13T07:38:28.811Z,64.79
2018-08-13T07:39:28.904Z,66.29
2018-08-13T07:40:28.788Z,65.29
2018-08-13T07:41:28.833Z,64.79
2018-08-13T07:42:28.776Z,64.99
2018-08-13T07:43:28.760Z,65.99
2018-08-13T07:44:28.749Z,65.99
2018-08-13T07:45:28.799Z,65.89
2018-08-13T07:46:28.792Z,65.79
2018-08-13T07:47:28.720Z,66.09
2018-08-13T07:48:28.711Z,65.99
2018-08-13T07:49:28.694Z,66.39
2018-08-13T07:50:28.682Z,66.72
2018-08-13T07:51:28.723Z,66.59
2018-08-13T07:52:28.661Z,65.99
2018-08-13T07:53:28.663Z,66.39
2018-08-13T07:54:28.650Z,66.89
2018-08-13T07:55:28.633Z,66.79
2018-08-13T07:56:28.665Z,66.99
2018-08-13T07:57:28.617Z,66.93
2018-08-13T07:58:28.598Z,67.69
2018-08-13T07:59:28.583Z,68.39
2018-08-13T08:00:28.581Z,68.73
2018-08-13T08:01:28.607Z,69.29
2018-08-13T08:02:28.551Z,69.53
2018-08-13T08:03:28.539Z,70.73
2018-08-13T08:04:28.529Z,71.73
2018-08-13T08:05:28.521Z,71.73
2018-08-13T08:06:28.566Z,73.22
2018-08-13T08:07:28.496Z,72.42
2018-08-13T08:08:28.491Z,73.72
2018-08-13T08:09:28.477Z,74.87
2018-08-13T08:10:28.464Z,75.96
2018-08-13T08:11:28.502Z,75.46
2018-08-13T08:12:28.444Z,76.06
2018-08-13T08:13:28.431Z,76.00
2018-08-13T08:14:28.425Z,75.90
2018-08-13T08:15:28.434Z,78.20
2018-08-13T08:16:28.474Z,78.54
2018-08-13T08:17:28.392Z,80.24
2018-08-13T08:18:28.377Z,80.04
2018-08-13T08:19:28.366Z,80.48
2018-08-13T08:20:28.371Z,81.09
2018-08-13T08:21:28.532Z,81.79
2018-08-13T08:22:28.337Z,82.32
2018-08-13T08:23:28.328Z,83.03
2018-08-13T08:24:28.311Z,83.03
2018-08-13T08:25:28.307Z,83.03
2018-08-13T08:26:28.372Z,84.17
2018-08-13T08:27:28.359Z,84.27
2018-08-13T08:28:28.279Z,84.27
2018-08-13T08:29:28.412Z,85.08
2018-08-13T08:30:28.338Z,85.22
2018-08-13T08:31:28.282Z,84.57
2018-08-13T08:32:28.238Z,84.81
2018-08-13T08:33:28.214Z,85.52
2018-08-13T08:34:28.209Z,85.97
2018-08-13T08:35:28.191Z,85.92
2018-08-13T08:36:28.225Z,86.42
2018-08-13T08:37:28.169Z,86.48
2018-08-13T08:38:28.157Z,87.18
2018-08-13T08:39:28.146Z,87.28
2018-08-13T08:40:28.198Z,88.53
2018-08-13T08:41:28.311Z,87.02
2018-08-13T08:42:28.116Z,87.58
2018-08-13T08:43:28.106Z,88.48
2018-08-13T08:44:28.089Z,88.43
2018-08-13T08:45:28.084Z,87.93
2018-08-13T08:46:28.119Z,88.32
2018-08-13T08:47:28.057Z,87.28
2018-08-13T08:48:28.045Z,86.82
2018-08-13T08:49:28.036Z,86.42
2018-08-13T08:50:28.025Z,86.82
2018-08-13T08:51:28.058Z,86.32
2018-08-13T08:52:28.003Z,84.67
2018-08-13T08:53:28.028Z,85.88
2018-08-13T08:54:27.983Z,87.32
2018-08-13T08:55:27.972Z,86.42
2018-08-13T08:56:28.011Z,85.61
2018-08-13T08:57:27.971Z,87.08
2018-08-13T08:58:27.939Z,86.42
2018-08-13T08:59:27.949Z,86.32
2018-08-13T09:00:27.916Z,86.52
2018-08-13T09:01:27.946Z,85.78
2018-08-13T09:02:27.896Z,85.92
2018-08-13T09:03:27.885Z,85.82
2018-08-13T09:04:27.872Z,85.72
2018-08-13T09:05:27.864Z,88.09
2018-08-13T09:06:27.892Z,87.02
2018-08-13T09:07:27.834Z,86.72
2018-08-13T09:08:27.828Z,86.42
2018-08-13T09:09:27.816Z,87.08
2018-08-13T09:10:27.818Z,86.68
2018-08-13T09:11:27.835Z,86.48
2018-08-13T09:12:27.786Z,85.92
2018-08-13T09:13:27.774Z,86.78
2018-08-13T09:14:27.760Z,86.32
2018-08-13T09:15:27.757Z,87.58
2018-08-13T09:16:27.784Z,87.32
2018-08-13T09:17:27.736Z,86.32
2018-08-13T09:18:27.716Z,86.92
2018-08-13T09:19:27.705Z,87.08
2018-08-13T09:20:27.694Z,87.82
2018-08-13T09:21:27.724Z,87.12
2018-08-13T09:22:27.670Z,86.72
2018-08-13T09:23:27.658Z,88.09
2018-08-13T09:24:27.650Z,86.72
2018-08-13T09:25:27.651Z,88.02
2018-08-13T09:26:27.682Z,89.03
2018-08-13T09:27:27.631Z,88.53
2018-08-13T09:28:27.603Z,88.02
2018-08-13T09:29:27.631Z,88.63
2018-08-13T09:30:27.581Z,88.43
2018-08-13T09:31:27.572Z,88.32
2018-08-13T09:32:27.607Z,89.13
2018-08-13T09:33:27.550Z,89.03
2018-08-13T09:34:27.540Z,87.93
2018-08-13T09:35:27.525Z,88.73
2018-08-13T09:36:27.533Z,89.23
2018-08-13T09:37:27.563Z,89.94
2018-08-13T09:38:27.494Z,90.23
2018-08-13T09:39:27.486Z,89.33
2018-08-13T09:40:27.473Z,89.53
2018-08-13T09:41:27.459Z,88.93
2018-08-13T09:42:27.497Z,87.93
2018-08-13T09:43:27.437Z,89.03
2018-08-13T09:44:27.432Z,89.27
2018-08-13T09:45:27.415Z,89.27
2018-08-13T09:46:27.407Z,89.94
2018-08-13T09:47:27.454Z,89.17
2018-08-13T09:48:27.392Z,89.83
2018-08-13T09:49:27.369Z,89.67
2018-08-13T09:50:27.369Z,88.97
2018-08-13T09:51:27.350Z,90.08
2018-08-13T09:52:27.388Z,90.17
2018-08-13T09:53:27.327Z,90.17
2018-08-13T09:54:27.318Z,90.17
2018-08-13T09:55:27.336Z,90.28
2018-08-13T09:56:27.294Z,88.97
2018-08-13T09:57:27.330Z,88.47
2018-08-13T09:58:27.274Z,89.27
2018-08-13T09:59:27.264Z,89.07
2018-08-13T10:00:27.288Z,91.08
2018-08-13T10:01:27.238Z,90.88
2018-08-13T10:02:27.276Z,91.58
2018-08-13T10:03:27.213Z,90.28
2018-08-13T10:04:27.208Z,90.08
2018-08-13T10:05:27.213Z,89.67
2018-08-13T10:06:27.182Z,89.98
2018-08-13T10:07:27.427Z,90.37
2018-08-13T10:08:27.176Z,89.78
2018-08-13T10:09:27.252Z,90.17
2018-08-13T10:10:27.144Z,89.98
2018-08-13T10:11:27.127Z,90.17
2018-08-13T10:12:27.124Z,89.58
2018-08-13T10:13:27.151Z,89.78
2018-08-13T10:14:27.109Z,90.28
2018-08-13T10:15:27.083Z,90.08
2018-08-13T10:16:27.073Z,89.42
2018-08-13T10:17:27.073Z,89.87
2018-08-13T10:18:27.099Z,89.51
2018-08-13T10:19:27.041Z,89.67
2018-08-13T10:20:27.057Z,89.82
2018-08-13T10:21:27.016Z,91.22
2018-08-13T10:22:27.008Z,89.87
2018-08-13T10:23:27.041Z,89.92
2018-08-13T10:24:26.992Z,91.13
2018-08-13T10:25:26.978Z,91.38
2018-08-13T10:26:26.971Z,89.98
2018-08-13T10:27:26.950Z,90.82
2018-08-13T10:28:27.001Z,91.63
2018-08-13T10:29:26.934Z,89.92
2018-08-13T10:30:26.918Z,90.72
2018-08-13T10:31:26.911Z,91.18
2018-08-13T10:32:26.896Z,91.13
2018-08-13T10:33:26.932Z,90.92
2018-08-13T10:34:26.872Z,92.08
2018-08-13T10:35:26.876Z,91.08
2018-08-13T10:36:26.865Z,91.13
2018-08-13T10:37:26.885Z,90.17
2018-08-13T10:38:26.876Z,91.52
2018-08-13T10:39:26.893Z,91.38
2018-08-13T10:40:26.805Z,91.22
2018-08-13T10:41:26.799Z,89.72
2018-08-13T10:42:26.786Z,90.12
2018-08-13T10:43:26.842Z,90.92
2018-08-13T10:44:26.762Z,90.92
2018-08-13T10:45:26.753Z,90.52
2018-08-13T10:46:26.740Z,89.82
2018-08-13T10:47:26.729Z,90.62
2018-08-13T10:48:26.762Z,91.58
2018-08-13T10:49:26.761Z,91.08
2018-08-13T10:50:26.696Z,91.32
2018-08-13T10:51:26.688Z,90.28
2018-08-13T10:52:26.673Z,89.87
2018-08-13T10:53:26.775Z,90.68
2018-08-13T10:54:26.670Z,90.28
2018-08-13T10:55:26.644Z,90.68
2018-08-13T10:56:26.627Z,90.48
2018-08-13T10:57:26.640Z,91.08
2018-08-13T10:58:26.651Z,91.28
2018-08-13T10:59:26.599Z,91.99
2018-08-13T11:00:26.585Z,91.03
2018-08-13T11:01:26.573Z,89.63
2018-08-13T11:02:26.563Z,89.33
2018-08-13T11:03:26.595Z,88.83
2018-08-13T11:04:26.539Z,90.53
2018-08-13T11:05:26.545Z,90.23
2018-08-13T11:06:26.518Z,90.03
2018-08-13T11:07:26.517Z,89.23
2018-08-13T11:08:26.561Z,89.23
2018-08-13T11:09:26.495Z,90.13
2018-08-13T11:10:26.520Z,89.03
2018-08-13T11:11:26.489Z,89.73
2018-08-13T11:12:26.482Z,89.63
2018-08-13T11:13:26.538Z,89.33
2018-08-13T11:14:26.431Z,89.53
2018-08-13T11:15:26.416Z,89.53
2018-08-13T11:16:26.409Z,89.23
2018-08-13T11:17:26.398Z,89.23
2018-08-13T11:18:26.384Z,88.93
2018-08-13T11:19:26.419Z,89.83
2018-08-13T11:20:26.362Z,89.73
2018-08-13T11:21:26.380Z,90.03
2018-08-13T11:22:26.341Z,90.03
2018-08-13T11:23:26.330Z,89.94
2018-08-13T11:24:26.366Z,91.44
2018-08-13T11:25:26.317Z,89.23
2018-08-13T11:26:26.312Z,90.03
2018-08-13T11:27:26.291Z,89.13
2018-08-13T11:28:26.315Z,89.63
2018-08-13T11:29:26.312Z,89.73
2018-08-13T11:30:26.250Z,88.93
2018-08-13T11:31:26.240Z,88.73
2018-08-13T11:32:26.229Z,89.03
2018-08-13T11:33:26.221Z,89.69
2018-08-13T11:34:26.262Z,89.23
2018-08-13T11:35:26.195Z,89.09
2018-08-13T11:36:26.185Z,89.33
2018-08-13T11:37:26.173Z,89.49
2018-08-13T11:38:26.162Z,89.29
2018-08-13T11:39:26.197Z,88.79
2018-08-13T11:40:26.142Z,89.14
2018-08-13T11:41:26.128Z,88.04
2018-08-13T11:42:26.119Z,88.14
2018-08-13T11:43:26.122Z,88.04
2018-08-13T11:44:26.157Z,88.24
2018-08-13T11:45:26.085Z,87.34
2018-08-13T11:46:26.082Z,87.34
2018-08-13T11:47:26.061Z,87.20
2018-08-13T11:48:26.059Z,88.30
2018-08-13T11:49:26.085Z,87.90
2018-08-13T11:50:26.031Z,87.80
2018-08-13T11:51:26.020Z,87.70
2018-08-13T11:52:26.069Z,88.04
2018-08-13T11:53:25.998Z,88.84
2018-08-13T11:54:26.031Z,89.04
2018-08-13T11:55:25.976Z,89.14
2018-08-13T11:56:25.986Z,89.04
2018-08-13T11:57:25.951Z,88.84
2018-08-13T11:58:25.945Z,88.75
2018-08-13T11:59:25.980Z,89.40
2018-08-13T12:00:25.919Z,89.25
2018-08-13T12:01:25.908Z,89.54
2018-08-13T12:02:25.899Z,89.65
2018-08-13T12:03:25.885Z,90.15
2018-08-13T12:04:25.921Z,90.99
2018-08-13T12:05:25.864Z,91.50
2018-08-13T12:06:25.851Z,92.20
2018-08-13T12:07:25.841Z,92.30
2018-08-13T12:08:25.884Z,91.50
2018-08-13T12:09:25.886Z,91.80
2018-08-13T12:10:25.819Z,92.00
2018-08-13T12:11:25.797Z,91.19
2018-08-13T12:12:25.790Z,92.40
2018-08-13T12:13:25.775Z,92.00
2018-08-13T12:14:25.792Z,93.60
2018-08-13T12:15:25.804Z,90.89
2018-08-13T12:16:25.741Z,92.20
2018-08-13T12:17:25.738Z,91.50
2018-08-13T12:18:25.719Z,90.95
2018-08-13T12:19:25.751Z,91.09
2018-08-13T12:20:25.746Z,90.99
2018-08-13T12:21:25.689Z,90.55
2018-08-13T12:22:25.677Z,91.35
2018-08-13T12:23:25.665Z,90.95
2018-08-13T12:24:25.660Z,92.46
2018-08-13T12:25:25.688Z,90.95
2018-08-13T12:26:25.685Z,89.70
2018-08-13T12:27:25.623Z,89.54
2018-08-13T12:28:25.626Z,91.20
2018-08-13T12:29:25.596Z,89.70
2018-08-13T12:30:25.641Z,89.81
2018-08-13T12:31:25.574Z,88.50
2018-08-13T12:32:25.565Z,89.40
2018-08-13T12:33:25.561Z,88.90
2018-08-13T12:34:25.540Z,89.11
2018-08-13T12:35:25.622Z,89.81
2018-08-13T12:36:25.521Z,88.10
2018-08-13T12:37:25.508Z,88.60
2018-08-13T12:38:25.509Z,89.11
2018-08-13T12:39:25.487Z,89.20
2018-08-13T12:40:25.523Z,89.50
2018-08-13T12:41:25.473Z,89.50
2018-08-13T12:42:25.453Z,89.50
2018-08-13T12:43:25.441Z,88.80
2018-08-13T12:44:25.490Z,88.80
2018-08-13T12:45:25.466Z,89.40
2018-08-13T12:46:25.408Z,89.61
2018-08-13T12:47:25.399Z,89.11
2018-08-13T12:48:25.387Z,88.40
2018-08-13T12:49:25.380Z,88.80
2018-08-13T12:50:25.411Z,87.55
2018-08-13T12:51:25.354Z,87.00
2018-08-13T12:52:25.344Z,87.05
2018-08-13T12:53:25.335Z,85.85
2018-08-13T12:54:25.319Z,86.16
2018-08-13T12:55:25.360Z,86.66
2018-08-13T12:56:25.321Z,86.85
2018-08-13T12:57:25.287Z,85.85
2018-08-13T12:58:25.294Z,85.71
2018-08-13T12:59:25.264Z,84.61
2018-08-13T13:00:25.304Z,85.61
2018-08-13T13:01:25.256Z,84.91
2018-08-13T13:02:25.237Z,84.31
2018-08-13T13:03:25.220Z,84.11
2018-08-13T13:04:25.214Z,83.81
2018-08-13T13:05:25.248Z,83.47
2018-08-13T13:06:25.187Z,83.57
2018-08-13T13:07:25.179Z,82.07
2018-08-13T13:08:25.168Z,82.83
2018-08-13T13:09:25.156Z,82.13
2018-08-13T13:10:25.202Z,82.33
2018-08-13T13:11:25.142Z,82.03
2018-08-13T13:12:25.123Z,81.39
2018-08-13T13:13:25.116Z,80.39
2018-08-13T13:14:25.101Z,81.59
2018-08-13T13:15:25.134Z,78.39
2018-08-13T13:16:25.083Z,78.69
2018-08-13T13:17:25.068Z,78.79
2018-08-13T13:18:25.057Z,78.49
2018-08-13T13:19:25.055Z,78.09
2018-08-13T13:20:25.129Z,79.39
2018-08-13T13:21:25.025Z,78.59
2018-08-13T13:22:25.012Z,78.05
2018-08-13T13:23:25.000Z,77.86
2018-08-13T13:24:24.995Z,78.45
2018-08-13T13:25:25.024Z,78.36
2018-08-13T13:26:24.966Z,79.22
2018-08-13T13:27:24.978Z,78.02
2018-08-13T13:28:24.949Z,77.62
2018-08-13T13:29:24.935Z,75.72
2018-08-13T13:30:24.974Z,75.38
2018-08-13T13:31:24.914Z,76.02
2018-08-13T13:32:24.902Z,75.89
2018-08-13T13:33:24.894Z,75.09
2018-08-13T13:34:24.903Z,76.48
2018-08-13T13:35:24.910Z,76.25
2018-08-13T13:36:24.861Z,74.25
2018-08-13T13:37:24.875Z,73.45
2018-08-13T13:38:24.831Z,73.35
2018-08-13T13:39:24.825Z,73.72
2018-08-13T13:40:24.915Z,72.52
2018-08-13T13:41:24.803Z,72.12
2018-08-13T13:42:24.787Z,71.02
2018-08-13T13:43:24.776Z,72.22
2018-08-13T13:44:24.783Z,71.48
2018-08-13T13:45:24.797Z,72.32
2018-08-13T13:46:24.825Z,72.58
2018-08-13T13:47:24.738Z,70.19
2018-08-13T13:48:24.723Z,70.59
2018-08-13T13:49:24.714Z,69.59
2018-08-13T13:50:24.743Z,68.10
2018-08-13T13:51:24.690Z,68.79
2018-08-13T13:52:24.677Z,69.46